createdAt,value
2022-12-12T00:00:09.396Z,2.50
2022-12-12T00:02:39.390Z,2.52
2022-12-12T00:05:06.473Z,2.53
2022-12-12T00:07:32.968Z,2.45
2022-12-12T00:09:59.718Z,2.52
2022-12-12T00:12:26.289Z,2.46
2022-12-12T00:14:53.024Z,2.39
2022-12-12T00:17:19.911Z,2.38
2022-12-12T00:19:46.541Z,2.41
2022-12-12T00:22:12.997Z,2.56
2022-12-12T00:24:39.979Z,2.61
2022-12-12T00:27:12.291Z,2.67
2022-12-12T00:29:39.171Z,2.79
2022-12-12T00:32:05.785Z,2.79
2022-12-12T00:34:32.429Z,2.79
2022-12-12T00:36:59.191Z,2.79
2022-12-12T00:39:25.633Z,2.75
2022-12-12T00:41:52.277Z,2.70
2022-12-12T00:44:19.136Z,2.63
2022-12-12T00:46:45.598Z,2.70
2022-12-12T00:49:13.121Z,2.74
2022-12-12T00:51:39.716Z,2.66
2022-12-12T00:54:11.121Z,2.49
2022-12-12T00:56:39.319Z,2.50
2022-12-12T00:59:06.154Z,2.50
2022-12-12T01:01:33.560Z,2.62
2022-12-12T01:04:00.256Z,2.71
2022-12-12T01:06:27.325Z,2.79
2022-12-12T01:08:54.223Z,2.74
2022-12-12T01:11:21.109Z,2.66
2022-12-12T01:13:48.387Z,2.73
2022-12-12T01:16:15.117Z,2.75
2022-12-12T01:18:42.180Z,2.80
2022-12-12T01:21:19.996Z,2.78
2022-12-12T01:23:46.585Z,2.83
2022-12-12T01:26:14.737Z,2.87
2022-12-12T01:28:42.804Z,2.86
2022-12-12T01:31:09.778Z,2.90
2022-12-12T01:33:36.509Z,2.83
2022-12-12T01:36:03.845Z,2.86
2022-12-12T01:38:30.292Z,2.66
2022-12-12T01:40:56.799Z,2.66
2022-12-12T01:43:24.075Z,2.67
2022-12-12T01:46:00.117Z,2.63
2022-12-12T01:48:29.190Z,2.71
2022-12-12T01:50:57.725Z,2.76
2022-12-12T01:53:25.859Z,2.76
2022-12-12T01:55:53.828Z,2.78
2022-12-12T01:58:20.252Z,2.71
2022-12-12T02:00:46.668Z,2.67
2022-12-12T02:03:13.079Z,2.75
2022-12-12T02:05:41.994Z,2.77
2022-12-12T02:08:09.693Z,2.75
2022-12-12T02:10:36.416Z,2.72
2022-12-12T02:13:06.396Z,2.74
2022-12-12T02:15:38.400Z,2.67
2022-12-12T02:18:12.501Z,2.64
2022-12-12T02:20:47.933Z,2.59
2022-12-12T02:23:21.419Z,2.57
2022-12-12T02:25:50.887Z,2.51
2022-12-12T02:28:20.395Z,2.59
2022-12-12T02:31:05.613Z,2.62
2022-12-12T02:33:36.930Z,2.52
2022-12-12T02:36:09.443Z,2.58
2022-12-12T02:38:41.836Z,2.51
2022-12-12T02:41:27.404Z,2.53
2022-12-12T02:44:03.163Z,2.46
2022-12-12T02:46:32.571Z,2.54
2022-12-12T02:49:18.664Z,2.58
2022-12-12T02:51:45.827Z,2.48
2022-12-12T02:54:17.226Z,2.47
2022-12-12T02:56:47.815Z,2.41
2022-12-12T02:59:21.159Z,2.41
2022-12-12T03:02:00.158Z,2.44
2022-12-12T03:04:52.344Z,2.38
2022-12-12T03:07:46.953Z,2.34
2022-12-12T03:10:19.358Z,2.37
2022-12-12T03:12:48.673Z,2.50
2022-12-12T03:15:22.323Z,2.43
2022-12-12T03:17:54.668Z,2.33
2022-12-12T03:20:25.807Z,2.30
2022-12-12T03:22:56.388Z,2.30
2022-12-12T03:25:26.732Z,2.18
2022-12-12T03:27:56.200Z,2.13
2022-12-12T03:30:22.811Z,2.11
2022-12-12T03:32:54.046Z,2.10
2022-12-12T03:35:29.935Z,2.03
2022-12-12T03:38:13.090Z,1.99
2022-12-12T03:40:43.830Z,1.97
2022-12-12T03:43:13.508Z,1.95
2022-12-12T03:45:49.521Z,2.02
2022-12-12T03:48:26.336Z,1.96
2022-12-12T03:51:34.835Z,1.98
2022-12-12T03:54:10.181Z,2.00
2022-12-12T03:56:49.092Z,1.97
2022-12-12T03:59:36.619Z,1.99
2022-12-12T04:02:23.253Z,1.96
2022-12-12T04:04:50.697Z,1.87
2022-12-12T04:07:20.580Z,1.88
2022-12-12T04:10:05.664Z,1.98
2022-12-12T04:12:51.079Z,1.90
2022-12-12T04:23:17.513Z,2.00
2022-12-12T04:26:09.881Z,2.00
2022-12-12T04:28:41.195Z,1.89
2022-12-12T04:31:09.290Z,1.83
2022-12-12T04:33:41.561Z,1.78
2022-12-12T04:36:10.113Z,1.86
2022-12-12T04:38:37.517Z,1.86
2022-12-12T04:41:06.622Z,1.93
2022-12-12T04:43:35.693Z,1.90
2022-12-12T04:46:04.907Z,1.87
2022-12-12T04:48:38.058Z,1.91
2022-12-12T04:51:06.203Z,1.90
2022-12-12T04:53:35.340Z,1.95
2022-12-12T04:56:05.975Z,1.91
2022-12-12T04:58:33.644Z,1.84
2022-12-12T05:01:06.720Z,1.90
2022-12-12T05:03:41.695Z,1.83
2022-12-12T05:06:13.385Z,1.80
2022-12-12T05:08:42.858Z,1.75
2022-12-12T05:11:09.587Z,1.76
2022-12-12T05:13:37.744Z,1.75
2022-12-12T05:16:10.168Z,1.83
2022-12-12T05:18:36.583Z,1.75
2022-12-12T05:21:03.089Z,1.67
2022-12-12T05:23:34.607Z,1.77
2022-12-12T05:26:06.417Z,1.76
2022-12-12T05:28:32.954Z,1.75
2022-12-12T05:30:59.578Z,1.69
2022-12-12T05:33:25.997Z,1.77
2022-12-12T05:35:52.496Z,1.63
2022-12-12T05:38:18.935Z,1.65
2022-12-12T05:40:45.500Z,1.67
2022-12-12T05:43:12.285Z,1.77
2022-12-12T05:45:39.102Z,1.65
2022-12-12T05:48:05.796Z,1.62
2022-12-12T05:50:32.241Z,1.61
2022-12-12T05:52:58.802Z,1.52
2022-12-12T05:55:26.163Z,1.57
2022-12-12T05:57:53.043Z,1.56
2022-12-12T06:00:19.842Z,1.54
2022-12-12T06:02:46.491Z,1.60
2022-12-12T06:05:13.195Z,1.52
2022-12-12T06:07:40.344Z,1.51
2022-12-12T06:10:07.288Z,1.51
2022-12-12T06:12:33.706Z,1.47
2022-12-12T06:15:00.422Z,1.46
2022-12-12T06:17:31.382Z,1.50
2022-12-12T06:20:01.061Z,1.50
2022-12-12T06:22:27.950Z,1.49
2022-12-12T06:24:54.391Z,1.51
2022-12-12T06:27:20.768Z,1.40
2022-12-12T06:29:47.197Z,1.35
2022-12-12T06:32:13.661Z,1.30
2022-12-12T06:34:49.247Z,1.32
2022-12-12T06:37:32.254Z,1.37
2022-12-12T06:40:07.441Z,1.42
2022-12-12T06:42:37.071Z,1.42
2022-12-12T06:45:06.745Z,1.54
2022-12-12T06:47:33.672Z,1.61
2022-12-12T06:50:00.550Z,1.75
2022-12-12T06:52:29.011Z,1.79
2022-12-12T06:55:01.695Z,1.81
2022-12-12T06:57:28.554Z,1.80
2022-12-12T06:59:57.743Z,1.71
2022-12-12T07:02:33.034Z,0.53
2022-12-12T07:05:17.410Z,1.80
2022-12-12T07:08:53.456Z,1.70
2022-12-12T07:11:31.751Z,1.72
2022-12-12T17:32:24.519Z,1.51
2022-12-12T17:34:51.254Z,1.46
2022-12-12T17:37:18.760Z,1.47
2022-12-12T17:39:45.287Z,1.39
2022-12-12T17:42:11.699Z,1.43
2022-12-12T17:44:40.656Z,1.41
2022-12-12T17:47:07.069Z,1.44
2022-12-12T17:49:33.573Z,1.44
2022-12-12T17:52:02.442Z,1.46
2022-12-12T17:54:35.819Z,1.40
2022-12-12T17:57:04.840Z,1.38
2022-12-12T17:59:31.293Z,1.36
2022-12-12T18:01:57.875Z,1.28
2022-12-12T18:04:39.030Z,1.29
2022-12-12T18:07:12.256Z,1.30
2022-12-12T18:09:38.811Z,1.32
2022-12-12T18:12:10.032Z,1.34
2022-12-12T18:14:42.363Z,1.28
2022-12-12T18:17:08.874Z,1.21
2022-12-12T18:19:35.369Z,1.12
2022-12-12T18:22:02.530Z,1.03
2022-12-12T18:24:29.860Z,1.05
2022-12-12T18:26:58.345Z,0.87
2022-12-12T18:29:25.474Z,1.14
2022-12-12T18:31:52.594Z,1.13
2022-12-12T18:34:19.576Z,1.13
2022-12-12T18:40:28.029Z,1.03
2022-12-12T18:42:55.133Z,1.02
2022-12-12T18:45:21.653Z,1.01
2022-12-12T18:47:48.217Z,0.95
2022-12-12T18:50:14.927Z,0.93
2022-12-12T18:52:41.889Z,0.91
2022-12-12T18:55:08.641Z,0.90
2022-12-12T18:57:35.419Z,0.89
2022-12-12T19:00:02.289Z,0.90
2022-12-12T19:02:29.145Z,0.86
2022-12-12T19:04:55.669Z,0.90
2022-12-12T19:07:22.384Z,0.94
2022-12-12T19:09:48.986Z,0.97
2022-12-12T19:12:15.512Z,0.99
2022-12-12T19:15:07.981Z,0.98
2022-12-12T19:17:28.999Z,0.99
2022-12-12T19:19:55.627Z,0.97
2022-12-12T19:22:44.498Z,0.98
2022-12-12T19:25:10.992Z,0.96
2022-12-12T19:27:37.512Z,0.93
2022-12-12T19:30:04.689Z,0.91
2022-12-12T21:53:07.162Z,0.22
2022-12-12T21:55:37.750Z,0.21
2022-12-12T21:58:04.276Z,0.14
2022-12-12T22:00:30.592Z,0.09
2022-12-12T22:02:57.610Z,0.06
2022-12-12T22:05:25.386Z,-0.07
2022-12-12T22:07:53.148Z,0.03
2022-12-12T22:10:19.534Z,0.10
2022-12-12T22:12:57.418Z,0.11
2022-12-12T22:15:24.265Z,0.12
2022-12-12T22:17:50.852Z,0.11
2022-12-12T22:20:17.252Z,0.09
2022-12-12T22:22:43.591Z,0.08
2022-12-12T22:25:09.924Z,0.06
2022-12-12T22:27:36.957Z,0.08
2022-12-12T22:30:03.521Z,0.07
2022-12-12T22:32:29.890Z,0.01
2022-12-12T22:34:58.236Z,-0.01
2022-12-12T22:37:24.624Z,-0.03
2022-12-12T22:39:51.120Z,-0.06
2022-12-12T22:42:17.496Z,-0.05
2022-12-12T22:44:43.829Z,-0.09
2022-12-12T22:47:10.215Z,-0.15
2022-12-12T22:49:36.695Z,-0.14
2022-12-12T22:52:03.128Z,-0.14
2022-12-12T22:54:29.561Z,-0.16
2022-12-12T22:56:55.941Z,-0.15
2022-12-12T22:59:22.301Z,-0.19
2022-12-12T23:01:48.796Z,-0.08
2022-12-12T23:04:15.569Z,-0.07
2022-12-12T23:06:42.829Z,-0.15
2022-12-12T23:09:18.020Z,-0.27
2022-12-12T23:11:44.454Z,-0.36
2022-12-12T23:14:14.191Z,-0.38
2022-12-12T23:16:40.653Z,-0.45
2022-12-12T23:19:07.638Z,-0.50
2022-12-12T23:21:35.000Z,-0.49
2022-12-12T23:24:01.913Z,-0.47
2022-12-12T23:26:30.345Z,-0.41
2022-12-12T23:28:57.712Z,-0.42
2022-12-12T23:31:25.630Z,-0.51
2022-12-12T23:33:53.216Z,-0.48
2022-12-12T23:36:20.140Z,-0.42
2022-12-12T23:38:46.468Z,-0.41
2022-12-12T23:41:14.373Z,-0.37
2022-12-12T23:43:41.685Z,-0.38
2022-12-12T23:46:27.910Z,-0.46
2022-12-12T23:48:55.454Z,-0.42
2022-12-12T23:51:21.952Z,-0.41
2022-12-12T23:53:49.423Z,-0.38
2022-12-12T23:56:15.822Z,-0.37
2022-12-12T23:58:42.408Z,-0.41
